Time;durP1;ratioP1;P1;durP2;ratioP2;P2;SDS_P1;SDS_P2;PMS_P1;PMS_P2;Temp;Humidity;BMP_temperature;BMP_pressure;BME280_temperature;BME280_humidity;BME280_pressure;Samples;Min_cycle;Max_cycle;Signal;HPM_P1;HPM_P2
2023/03/12 00:01:22;;;;;;;16.80;8.77;;;;;;;4.66;47.58;97071.00;5057884;28;20234;-70
2023/03/12 00:03:47;;;;;;;16.53;8.10;;;;;;;4.66;48.04;97064.94;5047683;28;20241;-70
2023/03/12 00:06:13;;;;;;;18.63;8.67;;;;;;;4.69;47.95;97072.50;5051227;28;20444;-70
2023/03/12 00:08:39;;;;;;;14.77;7.70;;;;;;;4.75;47.76;97075.47;5052396;28;20190;-69
2023/03/12 00:11:06;;;;;;;14.10;8.43;;;;;;;4.71;47.35;97079.22;5049546;28;20182;-69
2023/03/12 00:13:32;;;;;;;12.43;8.40;;;;;;;4.64;47.22;97080.66;5043168;28;20680;-68
2023/03/12 00:16:03;;;;;;;12.87;7.30;;;;;;;4.48;47.96;97077.56;5049335;28;20651;-69
2023/03/12 00:18:28;;;;;;;13.27;7.40;;;;;;;4.61;47.75;97078.28;5055158;28;20551;-69
2023/03/12 00:20:54;;;;;;;13.63;7.40;;;;;;;4.57;48.11;97076.88;5057634;28;20493;-68
2023/03/12 00:23:20;;;;;;;11.20;7.40;;;;;;;4.57;47.11;97082.91;5063594;28;20188;-69
2023/03/12 00:25:45;;;;;;;10.80;7.13;;;;;;;4.50;47.62;97070.50;5060061;28;21054;-70
2023/03/12 00:28:11;;;;;;;20.93;7.70;;;;;;;4.51;48.22;97078.16;5062797;28;20220;-70
2023/03/12 00:30:36;;;;;;;20.63;7.00;;;;;;;4.60;47.44;97081.81;5062564;28;20221;-67
2023/03/12 00:33:02;;;;;;;13.43;7.47;;;;;;;4.52;47.77;97077.22;5062636;28;20182;-70
2023/03/12 00:35:27;;;;;;;11.10;6.73;;;;;;;4.36;48.59;97074.97;5061245;28;20206;-69
2023/03/12 00:37:52;;;;;;;13.27;6.73;;;;;;;4.38;47.81;97073.09;5057953;28;20282;-70
2023/03/12 00:40:18;;;;;;;14.77;7.27;;;;;;;4.34;48.15;97071.66;5050827;28;20210;-70
2023/03/12 00:42:43;;;;;;;9.50;6.20;;;;;;;4.34;48.04;97068.25;5060394;28;20186;-69
2023/03/12 00:45:09;;;;;;;12.40;7.13;;;;;;;4.25;48.84;97067.19;5062818;28;20675;-69
2023/03/12 00:47:35;;;;;;;14.03;6.50;;;;;;;4.27;48.11;97073.09;5060134;28;20600;-69
2023/03/12 00:50:00;;;;;;;10.40;6.60;;;;;;;4.32;48.55;97054.56;5056483;28;20178;-69
2023/03/12 00:52:25;;;;;;;15.60;6.87;;;;;;;4.41;48.20;97062.47;5055156;28;20774;-70
2023/03/12 00:54:51;;;;;;;10.53;6.10;;;;;;;4.42;48.61;97058.94;5059295;28;20234;-69
2023/03/12 00:57:16;;;;;;;12.03;6.50;;;;;;;4.54;48.11;97066.72;5055278;28;20252;-69
2023/03/12 00:59:42;;;;;;;12.57;7.00;;;;;;;4.55;47.93;97063.19;5057134;28;20225;-69
2023/03/12 01:02:08;;;;;;;15.10;6.00;;;;;;;4.52;48.16;97058.25;5054998;28;20278;-68
2023/03/12 01:04:33;;;;;;;10.60;6.30;;;;;;;4.58;48.04;97057.75;5047951;28;20298;-70
2023/03/12 01:06:59;;;;;;;9.40;6.50;;;;;;;4.63;48.48;97065.19;5046168;28;20640;-70
2023/03/12 01:09:24;;;;;;;7.57;4.93;;;;;;;4.70;47.39;97061.19;5052590;28;20186;-68
2023/03/12 01:11:49;;;;;;;9.00;5.03;;;;;;;4.54;48.48;97056.31;5052704;28;20206;-69
2023/03/12 01:14:15;;;;;;;12.67;5.83;;;;;;;4.59;48.46;97059.41;5061230;28;21440;-68
2023/03/12 01:16:40;;;;;;;7.83;4.80;;;;;;;4.61;47.81;97058.34;5057913;28;20183;-68
2023/03/12 01:19:06;;;;;;;14.63;5.97;;;;;;;4.51;48.00;97064.38;5047725;28;20269;-69
2023/03/12 01:21:31;;;;;;;10.60;5.83;;;;;;;4.51;48.08;97061.78;5045649;28;20679;-69
2023/03/12 01:23:57;;;;;;;12.87;6.67;;;;;;;4.65;48.14;97058.94;5051503;28;20250;-70
2023/03/12 01:26:23;;;;;;;17.53;6.20;;;;;;;4.68;48.33;97061.28;5044974;28;20206;-68
2023/03/12 01:28:48;;;;;;;9.03;5.77;;;;;;;4.67;47.68;97062.22;5043069;28;20247;-68
2023/03/12 01:31:17;;;;;;;13.53;6.03;;;;;;;4.46;48.76;97052.56;5066667;28;20277;-68
2023/03/12 01:33:43;;;;;;;14.47;6.23;;;;;;;4.53;48.79;97054.69;5052631;28;20179;-69
2023/03/12 01:36:22;;;;;;;10.83;6.07;;;;;;;4.60;48.14;97066.25;5058147;28;21208;-69
2023/03/12 01:38:53;;;;;;;15.57;7.17;;;;;;;4.60;48.66;97058.47;5055445;28;20433;-69
2023/03/12 01:41:19;;;;;;;11.33;5.87;;;;;;;4.57;48.28;97056.09;5038677;28;20468;-70
2023/03/12 01:43:45;;;;;;;8.57;5.80;;;;;;;4.59;48.68;97067.19;5053894;28;20490;-71
2023/03/12 01:46:47;;;;;;;10.90;6.10;;;;;;;4.65;48.41;97061.53;5044273;28;20563;-70
2023/03/12 01:49:25;;;;;;;14.00;6.27;;;;;;;4.69;47.99;97065.53;5042005;28;20933;-70
2023/03/12 01:52:03;;;;;;;15.70;6.67;;;;;;;4.72;48.08;97065.31;5041125;28;20421;-68
2023/03/12 01:54:33;;;;;;;12.90;6.50;;;;;;;4.61;47.81;97062.72;5041299;28;20445;-69
2023/03/12 01:56:59;;;;;;;11.77;7.30;;;;;;;4.68;47.84;97063.06;5034694;28;20488;-70
2023/03/12 01:59:30;;;;;;;15.63;6.87;;;;;;;4.67;48.34;97062.22;5049414;28;20533;-70
2023/03/12 02:01:56;;;;;;;13.03;6.97;;;;;;;4.75;48.56;97059.88;5060908;28;20425;-70
2023/03/12 02:04:23;;;;;;;12.30;7.10;;;;;;;4.85;48.31;97064.34;5043734;28;20823;-68
2023/03/12 02:06:54;;;;;;;11.57;6.93;;;;;;;4.75;48.20;97067.66;5048698;28;20593;-70
2023/03/12 02:09:20;;;;;;;11.53;6.93;;;;;;;4.76;48.41;97055.50;5056754;28;20424;-70
2023/03/12 02:11:46;;;;;;;30.07;13.13;;;;;;;4.64;49.11;97062.50;5045824;28;20931;-70
2023/03/12 02:14:11;;;;;;;39.70;14.57;;;;;;;4.75;49.17;97062.47;5056831;28;20420;-69
2023/03/12 02:16:37;;;;;;;45.27;13.43;;;;;;;4.83;48.90;97061.03;5055085;28;20188;-69
2023/03/12 02:19:03;;;;;;;31.20;11.67;;;;;;;4.91;49.10;97053.50;5050017;28;20186;-69
2023/03/12 02:21:32;;;;;;;22.70;11.00;;;;;;;4.98;48.48;97053.84;5046147;28;20199;-70
2023/03/12 02:24:18;;;;;;;25.00;10.80;;;;;;;5.01;48.63;97057.03;5050780;28;20501;-70
2023/03/12 02:26:43;;;;;;;19.77;8.90;;;;;;;5.02;48.51;97058.66;5051378;28;20903;-69
2023/03/12 02:29:09;;;;;;;17.00;9.03;;;;;;;4.98;47.75;97052.06;5040989;28;20429;-70
2023/03/12 02:31:41;;;;;;;21.77;9.00;;;;;;;5.00;48.36;97057.13;5045623;28;20198;-70
2023/03/12 02:34:08;;;;;;;17.20;8.60;;;;;;;5.07;47.92;97055.72;5042699;28;20187;-69
2023/03/12 02:36:33;;;;;;;16.90;8.10;;;;;;;4.94;49.21;97055.03;5046059;28;20851;-69
2023/03/12 02:38:59;;;;;;;17.57;8.53;;;;;;;4.89;49.31;97056.19;5056022;28;20513;-70
2023/03/12 02:41:39;;;;;;;17.30;8.70;;;;;;;5.01;48.65;97064.81;5043632;28;20665;-69
2023/03/12 02:44:15;;;;;;;14.87;7.30;;;;;;;5.04;48.07;97056.75;5044727;28;20175;-68
2023/03/12 02:46:46;;;;;;;16.83;8.07;;;;;;;5.06;48.88;97065.25;5047646;28;20430;-68
2023/03/12 02:49:12;;;;;;;35.23;7.47;;;;;;;5.08;48.89;97057.34;5057034;28;20496;-68
2023/03/12 02:51:39;;;;;;;17.60;5.97;;;;;;;5.15;47.68;97057.69;5056830;28;20429;-70
2023/03/12 02:54:04;;;;;;;11.30;6.20;;;;;;;5.21;47.47;97065.00;5041426;28;20520;-70
2023/03/12 02:56:30;;;;;;;9.10;6.30;;;;;;;5.24;47.00;97056.97;5048722;28;20508;-70
2023/03/12 02:58:55;;;;;;;10.07;6.37;;;;;;;5.30;47.13;97058.25;5036837;28;20183;-69
2023/03/12 03:01:21;;;;;;;14.97;5.90;;;;;;;5.26;47.33;97057.66;5056627;28;20210;-70
2023/03/12 03:03:46;;;;;;;14.90;6.00;;;;;;;5.18;47.49;97050.47;5048499;28;20186;-70
2023/03/12 03:06:12;;;;;;;15.03;6.23;;;;;;;4.94;47.46;97052.41;5051242;28;20861;-68
2023/03/12 03:08:38;;;;;;;11.20;5.97;;;;;;;5.05;47.13;97058.41;5032125;28;20195;-70
2023/03/12 03:11:04;;;;;;;11.10;6.50;;;;;;;5.07;47.99;97059.13;5052948;28;20179;-70
2023/03/12 03:13:30;;;;;;;12.00;6.60;;;;;;;5.15;48.70;97055.91;5053290;28;20261;-69
2023/03/12 03:15:57;;;;;;;17.43;6.83;;;;;;;5.19;48.00;97040.91;5048399;28;20517;-71
2023/03/12 03:18:23;;;;;;;11.93;6.70;;;;;;;4.94;48.05;97037.66;5040560;28;20193;-70
2023/03/12 03:21:00;;;;;;;12.60;6.10;;;;;;;4.98;47.48;97039.06;5056696;28;20972;-70
2023/03/12 03:23:26;;;;;;;7.83;5.83;;;;;;;4.96;47.30;97027.16;5049064;28;20422;-70
2023/03/12 03:25:51;;;;;;;11.30;6.20;;;;;;;5.04;47.47;97020.38;5056646;28;20973;-68
2023/03/12 03:28:18;;;;;;;10.67;5.83;;;;;;;4.99;47.86;97022.53;5047661;28;20205;-70
2023/03/12 03:30:44;;;;;;;9.93;6.53;;;;;;;5.15;47.87;97027.34;5037847;28;20202;-69
2023/03/12 03:33:09;;;;;;;12.80;5.50;;;;;;;5.26;46.94;97029.09;5046574;28;20437;-69
2023/03/12 03:35:35;;;;;;;10.53;5.43;;;;;;;5.07;47.24;97027.13;5047269;28;20214;-71
2023/03/12 03:38:01;;;;;;;9.83;5.00;;;;;;;5.10;47.26;97034.69;5046140;28;20615;-71
2023/03/12 03:40:26;;;;;;;9.17;5.00;;;;;;;5.14;46.70;97035.25;5047829;28;20210;-68
2023/03/12 03:42:52;;;;;;;16.03;6.00;;;;;;;5.12;46.71;97029.34;5051592;28;20945;-69
2023/03/12 03:45:18;;;;;;;11.37;5.50;;;;;;;5.06;47.24;97028.06;5040179;28;20209;-69
2023/03/12 03:47:44;;;;;;;9.43;5.93;;;;;;;4.90;47.99;97023.28;5046901;28;20179;-70
2023/03/12 03:50:11;;;;;;;8.30;5.70;;;;;;;4.97;48.53;97032.22;5048025;28;20944;-71
2023/03/12 03:52:37;;;;;;;11.23;6.20;;;;;;;5.09;47.49;97035.63;5048920;28;20637;-70
2023/03/12 03:55:03;;;;;;;9.10;6.07;;;;;;;5.02;47.66;97035.28;5056469;28;20448;-69
2023/03/12 03:57:28;;;;;;;11.43;6.03;;;;;;;5.00;48.35;97033.75;5052163;28;20194;-69
2023/03/12 03:59:55;;;;;;;10.43;6.20;;;;;;;4.93;49.07;97030.81;5059479;28;20199;-69
2023/03/12 04:02:20;;;;;;;11.30;6.20;;;;;;;5.13;48.48;97031.00;5050044;28;20207;-70
2023/03/12 04:04:46;;;;;;;10.50;6.60;;;;;;;5.22;48.19;97022.47;5044500;28;20875;-69
2023/03/12 04:07:11;;;;;;;8.10;5.60;;;;;;;5.17;47.70;97017.66;5056201;28;20425;-69
2023/03/12 04:09:37;;;;;;;12.23;6.30;;;;;;;5.18;48.09;97023.66;5060318;28;20259;-68
2023/03/12 04:12:02;;;;;;;13.03;6.27;;;;;;;5.26;48.10;97018.69;5045493;28;20712;-69
2023/03/12 04:14:28;;;;;;;8.40;5.40;;;;;;;5.23;47.42;97018.94;5034223;28;20233;-70
2023/03/12 04:16:53;;;;;;;11.13;5.60;;;;;;;5.10;48.16;97015.66;5050096;28;20307;-69
2023/03/12 04:19:19;;;;;;;10.53;7.00;;;;;;;5.12;47.90;97024.16;5041695;28;20678;-70
2023/03/12 04:21:44;;;;;;;11.90;6.07;;;;;;;5.21;48.02;97019.06;5044994;28;20270;-67
2023/03/12 04:24:14;;;;;;;9.50;5.80;;;;;;;5.29;48.00;97028.00;5046010;28;20186;-69
2023/03/12 04:26:39;;;;;;;9.90;5.80;;;;;;;5.41;48.60;97026.19;5052697;28;20266;-72
2023/03/12 04:29:05;;;;;;;7.00;5.27;;;;;;;5.51;48.57;97019.31;5032372;28;20582;-71
2023/03/12 04:31:30;;;;;;;9.03;6.10;;;;;;;5.56;48.49;97017.13;5035836;28;20278;-69
2023/03/12 04:33:56;;;;;;;9.13;5.53;;;;;;;5.64;47.98;97019.94;5042044;28;20651;-70
2023/03/12 04:36:21;;;;;;;10.43;5.57;;;;;;;5.71;48.14;97030.69;5039133;28;20679;-69
2023/03/12 04:38:46;;;;;;;9.20;5.20;;;;;;;5.77;48.08;97024.16;5049168;28;20211;-69
2023/03/12 04:41:13;;;;;;;10.60;6.50;;;;;;;5.81;47.93;97025.53;5045686;28;20207;-69
2023/03/12 04:43:39;;;;;;;14.17;6.87;;;;;;;5.80;48.64;97035.13;5046118;28;20191;-70
2023/03/12 04:46:05;;;;;;;9.40;5.23;;;;;;;5.65;48.04;97024.19;5043764;28;20441;-69
2023/03/12 04:48:31;;;;;;;13.97;5.60;;;;;;;5.54;49.21;97019.88;5034837;28;20211;-70
2023/03/12 04:50:56;;;;;;;10.10;5.90;;;;;;;5.67;48.69;97022.28;5041297;28;20465;-69
2023/03/12 04:53:22;;;;;;;15.67;7.30;;;;;;;5.74;48.63;97014.78;5042337;28;20219;-70
2023/03/12 04:55:47;;;;;;;8.80;5.93;;;;;;;5.83;48.34;97026.22;5047540;28;20211;-69
2023/03/12 04:58:13;;;;;;;10.53;5.80;;;;;;;5.89;48.23;97023.13;5037241;28;20554;-70
2023/03/12 05:00:39;;;;;;;8.23;4.83;;;;;;;5.94;48.11;97015.75;5046473;28;20211;-70
2023/03/12 05:03:05;;;;;;;10.23;5.47;;;;;;;5.94;47.98;97010.53;5055235;28;20205;-70
2023/03/12 05:05:30;;;;;;;12.17;6.50;;;;;;;6.01;48.08;97015.28;5049979;28;20856;-70
2023/03/12 05:07:56;;;;;;;8.13;5.30;;;;;;;6.09;47.37;97015.47;5042031;28;20651;-70
2023/03/12 05:10:21;;;;;;;10.67;5.80;;;;;;;6.10;47.54;97020.56;5046630;28;20298;-71
2023/03/12 05:12:46;;;;;;;10.90;5.70;;;;;;;6.05;47.86;97011.47;5052154;28;20286;-70
2023/03/12 05:15:12;;;;;;;8.20;5.80;;;;;;;6.05;47.46;97006.28;5049689;28;20268;-70
2023/03/12 05:17:37;;;;;;;9.00;5.40;;;;;;;6.04;47.99;97005.44;5046424;28;20193;-70
2023/03/12 05:20:07;;;;;;;9.23;5.50;;;;;;;6.08;48.08;97008.59;5044606;28;20298;-70
2023/03/12 05:22:32;;;;;;;8.90;5.23;;;;;;;6.02;49.03;97003.94;5047998;28;20202;-70
2023/03/12 05:24:57;;;;;;;8.87;5.53;;;;;;;5.88;49.18;97003.28;5041987;28;20803;-71
2023/03/12 05:27:24;;;;;;;8.90;6.00;;;;;;;5.94;49.01;97010.53;5048239;28;20590;-70
2023/03/12 05:29:51;;;;;;;12.00;5.80;;;;;;;6.05;49.08;97001.88;5048198;28;20179;-70
2023/03/12 05:32:16;;;;;;;17.43;6.43;;;;;;;6.12;48.93;97002.19;5050755;28;20447;-70
2023/03/12 05:34:41;;;;;;;12.70;6.10;;;;;;;6.14;49.35;97005.50;5040608;28;21008;-70
2023/03/12 05:37:07;;;;;;;9.37;5.50;;;;;;;6.17;49.54;97007.84;5043870;28;20184;-70
2023/03/12 05:39:32;;;;;;;8.13;5.33;;;;;;;6.21;49.96;97017.03;5047042;28;20191;-69
2023/03/12 05:41:58;;;;;;;10.10;5.90;;;;;;;6.07;50.56;97004.34;5046089;28;20779;-69
2023/03/12 05:44:24;;;;;;;7.83;5.90;;;;;;;6.04;50.93;97010.66;5045944;28;20183;-69
2023/03/12 05:46:50;;;;;;;10.37;6.83;;;;;;;5.87;51.00;97019.81;5049932;28;20557;-69
2023/03/12 05:49:15;;;;;;;13.27;6.90;;;;;;;5.96;51.00;97018.25;5047200;28;20278;-68
2023/03/12 05:51:42;;;;;;;12.47;6.60;;;;;;;6.06;51.25;97013.94;5053229;28;20416;-70
2023/03/12 05:54:08;;;;;;;13.03;6.27;;;;;;;6.09;51.34;97023.25;5039269;28;20268;-70
2023/03/12 05:56:35;;;;;;;10.30;5.83;;;;;;;6.04;51.17;97020.25;5046160;28;20445;-70
2023/03/12 05:59:00;;;;;;;8.17;5.50;;;;;;;5.97;51.70;97031.09;5046024;28;20429;-70
2023/03/12 06:01:27;;;;;;;11.57;6.00;;;;;;;5.87;51.66;97030.22;5046031;28;20481;-69
2023/03/12 06:03:52;;;;;;;10.80;6.67;;;;;;;5.84;52.27;97027.88;5046253;28;20191;-70
2023/03/12 06:06:18;;;;;;;12.60;6.00;;;;;;;5.87;52.37;97030.22;5046541;28;20460;-71
2023/03/12 06:08:43;;;;;;;12.33;6.63;;;;;;;5.91;52.72;97039.44;5045565;28;20191;-69
2023/03/12 06:11:09;;;;;;;14.13;8.13;;;;;;;5.97;53.01;97030.31;5035018;28;20237;-70
2023/03/12 06:13:35;;;;;;;16.67;9.10;;;;;;;5.87;53.71;97035.44;5035637;28;20668;-71
2023/03/12 06:16:05;;;;;;;56.73;29.20;;;;;;;5.84;53.94;97033.06;5044860;28;20445;-68
2023/03/12 06:18:31;;;;;;;37.83;20.93;;;;;;;5.99;54.18;97023.16;5039935;28;20194;-70
2023/03/12 06:21:12;;;;;;;14.43;8.43;;;;;;;6.05;53.98;97024.50;5040279;28;20564;-70
2023/03/12 06:23:38;;;;;;;11.20;6.73;;;;;;;6.04;53.91;97018.44;5053254;28;20421;-73
2023/03/12 06:26:03;;;;;;;10.30;5.80;;;;;;;6.04;54.03;97021.03;5070484;28;20453;-72
2023/03/12 06:28:29;;;;;;;9.50;5.97;;;;;;;5.91;54.50;97016.03;5059704;28;20184;-70
2023/03/12 06:30:55;;;;;;;10.10;6.40;;;;;;;5.90;54.01;97013.53;5054605;28;20292;-70
2023/03/12 06:33:20;;;;;;;8.50;5.63;;;;;;;5.88;54.62;97028.44;5064122;28;20182;-69
2023/03/12 06:35:46;;;;;;;9.40;6.47;;;;;;;5.92;54.39;97022.84;5045881;28;20437;-70
2023/03/12 06:38:11;;;;;;;11.73;6.60;;;;;;;6.02;54.12;97011.72;5046970;28;20773;-70
2023/03/12 06:40:36;;;;;;;16.50;6.60;;;;;;;6.02;54.29;97012.53;5033140;28;20854;-70
2023/03/12 06:43:02;;;;;;;10.60;6.60;;;;;;;6.11;54.82;97016.16;5051707;28;20273;-70
2023/03/12 06:45:28;;;;;;;11.27;6.73;;;;;;;5.92;55.38;97012.44;5038625;28;20241;-70
2023/03/12 06:47:53;;;;;;;11.43;7.00;;;;;;;5.89;54.88;97006.69;5040274;28;20210;-70
2023/03/12 06:50:18;;;;;;;11.67;6.70;;;;;;;5.95;55.09;97006.19;5045517;28;20179;-70
2023/03/12 06:52:44;;;;;;;9.90;7.00;;;;;;;5.77;55.85;97013.75;5038572;28;20218;-70
2023/03/12 06:55:09;;;;;;;12.37;7.00;;;;;;;5.67;56.19;97011.88;5045530;28;20282;-69
2023/03/12 06:57:35;;;;;;;14.03;7.10;;;;;;;5.77;56.23;97009.34;5024643;28;20600;-69
2023/03/12 07:00:00;;;;;;;9.53;5.93;;;;;;;5.85;56.26;97013.91;5045699;28;20214;-70
2023/03/12 07:02:26;;;;;;;10.00;6.60;;;;;;;5.87;56.16;97012.03;5051268;28;20274;-70
2023/03/12 07:04:51;;;;;;;13.57;7.63;;;;;;;5.98;56.46;97011.94;5050918;28;20209;-70
2023/03/12 07:07:17;;;;;;;12.53;7.80;;;;;;;6.02;56.29;97009.94;5039555;28;20274;-69
2023/03/12 07:09:42;;;;;;;12.30;7.20;;;;;;;5.98;56.70;97016.34;5045916;28;20258;-69
2023/03/12 07:12:08;;;;;;;9.30;7.57;;;;;;;5.94;56.55;97007.94;5041822;28;20190;-70
2023/03/12 07:14:33;;;;;;;13.27;7.53;;;;;;;5.89;57.47;97015.31;5046145;28;20230;-69
2023/03/12 07:17:01;;;;;;;13.53;8.03;;;;;;;5.75;57.22;97020.84;5039067;28;20172;-69
2023/03/12 07:19:29;;;;;;;10.73;7.50;;;;;;;5.79;57.58;97030.06;5047764;28;20183;-70
2023/03/12 07:21:55;;;;;;;10.70;8.70;;;;;;;5.74;57.55;97029.59;5045491;28;20492;-70
2023/03/12 07:24:21;;;;;;;14.10;8.57;;;;;;;5.72;58.26;97028.88;5033212;28;20421;-69
2023/03/12 07:26:47;;;;;;;11.40;8.23;;;;;;;5.62;57.91;97037.44;5036078;28;20414;-68
2023/03/12 07:29:12;;;;;;;13.20;9.30;;;;;;;5.62;58.25;97036.59;5050779;28;20571;-70
2023/03/12 07:31:38;;;;;;;12.63;8.17;;;;;;;5.41;58.91;97029.59;5036723;28;20246;-69
2023/03/12 07:34:04;;;;;;;12.80;8.80;;;;;;;5.46;58.63;97039.63;5051197;28;20186;-68
2023/03/12 07:36:30;;;;;;;17.63;8.60;;;;;;;5.39;59.20;97031.50;5045803;28;20198;-70
2023/03/12 07:38:56;;;;;;;13.30;8.53;;;;;;;5.43;59.61;97025.13;5035429;28;20490;-68
2023/03/12 07:41:22;;;;;;;16.77;8.40;;;;;;;5.57;59.71;97024.00;5032396;28;21234;-70
2023/03/12 07:43:47;;;;;;;11.53;7.30;;;;;;;5.68;59.31;97030.91;5050556;28;20275;-69
2023/03/12 07:46:12;;;;;;;9.90;6.80;;;;;;;5.64;59.56;97024.31;5048003;28;20201;-69
2023/03/12 07:48:38;;;;;;;14.43;8.20;;;;;;;5.79;59.02;97022.25;5037480;28;20203;-70
2023/03/12 07:51:04;;;;;;;11.77;7.80;;;;;;;5.83;59.17;97023.63;5037748;28;20239;-70
2023/03/12 07:53:29;;;;;;;14.17;8.50;;;;;;;5.87;59.40;97016.38;5040729;28;20183;-69
2023/03/12 07:55:55;;;;;;;13.17;7.80;;;;;;;5.98;59.07;97013.75;5049018;28;20569;-68
2023/03/12 07:58:20;;;;;;;12.43;7.93;;;;;;;6.04;59.27;97015.84;5046602;28;20187;-69
2023/03/12 08:00:46;;;;;;;8.93;7.50;;;;;;;6.09;59.17;97010.25;5047468;28;20202;-69
2023/03/12 08:03:12;;;;;;;13.60;7.80;;;;;;;6.19;59.59;97018.13;5049715;28;20187;-69
2023/03/12 08:05:37;;;;;;;20.23;8.10;;;;;;;6.41;59.29;97024.94;5056162;28;20568;-69
2023/03/12 08:08:03;;;;;;;11.97;7.57;;;;;;;6.52;59.33;97022.25;5052268;28;20413;-69
2023/03/12 08:10:28;;;;;;;10.07;7.17;;;;;;;6.53;59.08;97020.44;5051850;28;20582;-69
2023/03/12 08:12:53;;;;;;;13.70;6.80;;;;;;;6.50;59.10;97016.34;5054553;28;20233;-69
2023/03/12 08:15:19;;;;;;;8.70;6.90;;;;;;;6.64;59.09;97017.75;5043340;28;20207;-69
2023/03/12 08:17:44;;;;;;;10.70;6.87;;;;;;;6.68;58.99;97015.72;5055303;28;20266;-69
2023/03/12 08:20:11;;;;;;;10.70;6.93;;;;;;;6.73;59.06;97021.34;5057221;28;20591;-70
2023/03/12 08:22:37;;;;;;;9.30;6.40;;;;;;;6.77;58.79;97020.13;5049971;28;20222;-70
2023/03/12 08:25:03;;;;;;;7.43;5.50;;;;;;;6.68;59.21;97023.53;5052127;28;20433;-69
2023/03/12 08:27:29;;;;;;;8.93;6.33;;;;;;;6.73;59.38;97022.19;5061912;28;20412;-69
2023/03/12 08:29:54;;;;;;;10.57;6.27;;;;;;;6.76;59.57;97026.28;5048498;28;20879;-69
2023/03/12 08:32:20;;;;;;;8.93;6.03;;;;;;;6.76;58.90;97021.91;5050906;28;20189;-69
2023/03/12 08:34:45;;;;;;;8.60;5.90;;;;;;;6.81;59.32;97028.50;5050379;28;20206;-69
2023/03/12 08:37:11;;;;;;;8.70;5.60;;;;;;;6.83;59.68;97029.19;5050442;28;20632;-70
2023/03/12 08:39:36;;;;;;;8.10;5.73;;;;;;;6.92;59.70;97033.59;5046474;28;20187;-69
2023/03/12 08:42:02;;;;;;;12.13;6.23;;;;;;;7.01;60.09;97034.59;5049243;28;20179;-70
2023/03/12 08:44:28;;;;;;;9.20;5.37;;;;;;;7.12;59.91;97031.06;5054514;28;20270;-71
2023/03/12 08:46:53;;;;;;;9.77;6.60;;;;;;;7.26;59.91;97029.81;5037384;28;20505;-70
2023/03/12 08:49:20;;;;;;;10.40;5.90;;;;;;;7.43;60.26;97036.97;5036547;28;20186;-70
2023/03/12 08:51:45;;;;;;;9.00;5.77;;;;;;;7.53;60.33;97032.59;5041694;28;20600;-70
2023/03/12 08:54:11;;;;;;;7.03;6.03;;;;;;;7.61;59.90;97031.91;5041612;28;20418;-68
2023/03/12 08:56:40;;;;;;;8.17;5.90;;;;;;;7.73;59.95;97031.75;5041672;28;20202;-71
2023/03/12 08:59:06;;;;;;;8.73;6.00;;;;;;;7.80;60.18;97025.84;5032303;28;20179;-69
2023/03/12 09:01:31;;;;;;;8.00;5.83;;;;;;;7.64;60.64;97026.38;5041926;28;20445;-69
2023/03/12 09:03:57;;;;;;;8.93;6.20;;;;;;;7.78;60.90;97032.16;5046683;28;20185;-71
2023/03/12 09:06:22;;;;;;;8.83;6.20;;;;;;;7.83;61.11;97028.16;5032704;28;20249;-70
2023/03/12 09:08:50;;;;;;;9.50;6.63;;;;;;;7.96;61.78;97032.25;5041065;28;20179;-69
2023/03/12 09:11:16;;;;;;;9.50;6.33;;;;;;;8.05;62.04;97028.84;5040588;28;20179;-71
2023/03/12 09:13:41;;;;;;;8.30;6.40;;;;;;;8.14;62.47;97033.19;5034815;28;20966;-71
2023/03/12 09:16:07;;;;;;;7.30;5.93;;;;;;;8.31;61.89;97030.84;5053693;28;21007;-71
2023/03/12 09:18:33;;;;;;;14.00;7.60;;;;;;;8.35;61.58;97026.94;5034444;28;20190;-70
2023/03/12 09:20:59;;;;;;;9.00;6.90;;;;;;;8.48;61.54;97028.44;5048720;28;20297;-71
2023/03/12 09:23:25;;;;;;;11.03;7.87;;;;;;;8.52;62.36;97037.66;5040643;28;20858;-71
2023/03/12 09:25:50;;;;;;;9.63;7.10;;;;;;;8.73;62.30;97025.19;5041918;28;20198;-71
2023/03/12 09:28:16;;;;;;;13.63;7.90;;;;;;;8.79;62.09;97033.41;5040916;28;20919;-70
2023/03/12 09:30:41;;;;;;;7.70;6.70;;;;;;;8.87;62.37;97038.72;5036788;28;21079;-71
2023/03/12 09:33:07;;;;;;;7.97;6.63;;;;;;;8.93;62.66;97035.56;5039269;28;20270;-71
2023/03/12 09:35:33;;;;;;;9.43;7.40;;;;;;;9.14;62.79;97037.06;5042605;28;20205;-71
2023/03/12 09:37:58;;;;;;;10.80;8.07;;;;;;;9.19;62.90;97034.84;5033032;28;20987;-70
2023/03/12 09:40:28;;;;;;;9.17;6.80;;;;;;;9.29;63.07;97040.84;5034652;28;20566;-71
2023/03/12 09:43:25;;;;;;;11.20;6.87;;;;;;;9.46;62.97;97047.03;5048028;28;20181;-71
2023/03/12 09:45:52;;;;;;;7.20;5.63;;;;;;;9.62;63.30;97043.75;5020810;28;20512;-71
2023/03/12 09:48:26;;;;;;;6.33;5.67;;;;;;;9.76;63.53;97047.66;5033831;28;20418;-70
2023/03/12 09:50:52;;;;;;;6.67;5.27;;;;;;;9.85;64.08;97045.88;5038392;28;20413;-70
2023/03/12 09:53:28;;;;;;;7.13;4.97;;;;;;;9.92;64.24;97039.09;5041668;28;20447;-70
2023/03/12 09:55:56;;;;;;;5.20;4.57;;;;;;;10.07;63.96;97041.16;5048901;28;20216;-71
2023/03/12 09:58:29;;;;;;;5.50;4.37;;;;;;;10.13;64.48;97043.16;5042826;28;20497;-71
2023/03/12 10:01:23;;;;;;;5.10;3.80;;;;;;;10.27;64.52;97042.59;5032504;28;20462;-71
2023/03/12 10:04:02;;;;;;;4.90;3.93;;;;;;;10.34;64.54;97041.97;5039721;28;20461;-70
2023/03/12 10:06:34;;;;;;;5.70;3.80;;;;;;;10.57;64.32;97053.63;5030841;28;20524;-70
2023/03/12 10:09:19;;;;;;;5.07;3.67;;;;;;;10.56;64.39;97051.97;5034787;28;20509;-70
2023/03/12 10:11:50;;;;;;;6.37;4.07;;;;;;;10.74;64.22;97057.13;5028809;28;20414;-70
2023/03/12 10:14:53;;;;;;;4.57;3.73;;;;;;;10.96;64.19;97046.25;5036781;28;20427;-70
2023/03/12 10:17:36;;;;;;;9.77;3.43;;;;;;;11.21;64.11;97055.00;5032448;28;20408;-70
2023/03/12 10:20:25;;;;;;;5.07;3.20;;;;;;;11.51;63.83;97052.78;5037885;28;20560;-70
2023/03/12 10:23:16;;;;;;;3.43;3.13;;;;;;;11.75;63.25;97051.16;5033814;28;20438;-70
2023/03/12 10:25:54;;;;;;;5.80;3.13;;;;;;;11.89;63.02;97052.28;5037714;28;20441;-72
2023/03/12 10:28:26;;;;;;;3.97;2.90;;;;;;;12.03;62.87;97049.03;5043555;28;20425;-70
2023/03/12 10:30:55;;;;;;;6.30;3.20;;;;;;;12.40;62.39;97058.19;5042181;28;20421;-70
2023/03/12 10:33:23;;;;;;;4.97;2.40;;;;;;;12.72;61.76;97061.72;5036364;28;20506;-70
2023/03/12 10:35:49;;;;;;;4.30;2.63;;;;;;;12.46;60.82;97059.31;5036836;28;20446;-72
2023/03/12 10:38:24;;;;;;;2.30;2.10;;;;;;;12.86;60.04;97060.19;5035409;28;20426;-71
2023/03/12 10:40:49;;;;;;;5.17;3.43;;;;;;;12.88;59.51;97067.91;5013574;28;20194;-71
2023/03/12 10:43:15;;;;;;;3.40;2.37;;;;;;;12.52;60.28;97068.34;5036307;28;20943;-71
2023/03/12 10:46:00;;;;;;;2.83;2.50;;;;;;;12.47;60.80;97081.19;5034957;28;20206;-71
2023/03/12 10:48:26;;;;;;;4.17;2.40;;;;;;;12.51;60.54;97088.56;5029339;28;20230;-71
2023/03/12 10:51:02;;;;;;;5.13;2.70;;;;;;;12.26;61.49;97087.75;5043278;28;20413;-71
2023/03/12 10:53:33;;;;;;;2.43;2.23;;;;;;;12.29;61.61;97096.13;5036758;28;20265;-71
2023/03/12 10:56:11;;;;;;;5.50;3.47;;;;;;;12.33;61.83;97098.44;5039888;28;20454;-71
2023/03/12 10:58:51;;;;;;;2.77;2.57;;;;;;;12.38;61.88;97102.19;5036446;28;20918;-70
2023/03/12 11:01:25;;;;;;;5.00;3.03;;;;;;;12.59;62.54;97098.25;5030617;28;20465;-71
2023/03/12 11:03:52;;;;;;;4.13;3.30;;;;;;;12.99;62.16;97096.47;5029433;28;20852;-71
2023/03/12 11:06:26;;;;;;;3.87;2.70;;;;;;;13.43;60.68;97096.97;5042607;28;20488;-71
2023/03/12 11:09:05;;;;;;;3.90;2.63;;;;;;;13.90;59.55;97092.56;5032353;28;20422;-71
2023/03/12 11:11:32;;;;;;;2.10;2.00;;;;;;;14.25;58.52;97103.47;5036168;28;20421;-70
2023/03/12 11:14:14;;;;;;;2.00;1.77;;;;;;;14.15;57.65;97100.28;5043074;28;20417;-70
2023/03/12 11:16:40;;;;;;;3.23;2.03;;;;;;;14.21;56.96;97097.75;5034625;28;21167;-71
2023/03/12 11:19:06;;;;;;;2.40;1.50;;;;;;;14.21;57.12;97095.09;5041256;28;20455;-71
2023/03/12 11:21:37;;;;;;;2.60;1.73;;;;;;;14.19;57.01;97107.63;5032460;28;20243;-72
2023/03/12 11:24:07;;;;;;;1.93;1.30;;;;;;;14.16;56.96;97108.00;5037686;28;20192;-70
2023/03/12 11:26:39;;;;;;;2.57;1.60;;;;;;;14.38;56.99;97097.56;5037623;28;20926;-71
2023/03/12 11:29:22;;;;;;;2.17;1.40;;;;;;;14.56;57.36;97098.06;5033512;28;20423;-70
2023/03/12 11:32:01;;;;;;;1.73;0.80;;;;;;;14.64;56.10;97099.81;5029846;28;20429;-71
2023/03/12 11:34:33;;;;;;;2.90;1.07;;;;;;;14.74;55.87;97110.94;5033539;28;20422;-70
2023/03/12 11:37:15;;;;;;;1.37;1.00;;;;;;;14.80;55.49;97101.47;5029870;28;20414;-70
2023/03/12 11:40:08;;;;;;;2.23;1.27;;;;;;;14.88;56.15;97101.38;5046627;28;20428;-70